Terminal Aerodrome Forecast
Issued by NWS Billings, MT

Home | Current Version | Previous Version | Text Only | Print | Product List | Glossary On
Versions: 1 2 3 4 5 6 7 8 9 10 11 12 13 14 15 16 17 18 19 20 21 22 23 24 25 26 27 28 29 30 31 32 33 34 35 36
000
FTUS45 KBYZ 242327
TAFBIL
TAF
KBIL 242327Z 2500/2524 04011KT P6SM VCSH FEW015 SCT025 BKN050
      TEMPO 2500/2504 SCT015 OVC025
     FM250700 28005KT P6SM SCT025 OVC040
     FM251300 VRB05KT P6SM VCSH BKN025
     FM252000 VRB05KT P6SM VCSH BKN035=

USA.gov is the U.S. government's official web portal to all federal, state and local government web resources and services.